nws-alerts: Checking more than four warning/county codes can delay the loading of your pages. You should use a cron job to get the data.

Nearby METAR Reports

 

KOXC - Oxford/Waterbury, Connecticut, USA
Distance from station: NW 7mi, 11km
Updated: 04/16/2024 12:51am
Mostly cloudy
Mostly cloudy
 Wind from NNW
Wind: NNW 14 mph , 22 km/h
Temperature: 52°F , 11°C
Dew Point: 30°F , -1°C
Humidity: 44%
Barometer: 30.01 inHg , 1016.3 hPa
Clouds: Mostly cloudy
Visibility: 10 miles , 16 km
Cloud details: Mostly cloudy 10000 ft
2024/04/16 04:51 KOXC 160451Z AUTO 34012KT 10SM BKN100 11/M01 A3001 RMK AO2 SLP173 T01111006 402280072
KHVN - New Haven/Tweed, Connecticut, USA
Distance from station: SE 13mi, 20km
Updated: 04/16/2024 12:53am
Overcast
Overcast
 Wind from NNW
Wind: NNW 10 mph , 17 km/h
Temperature: 61°F , 16°C
Dew Point: 34°F , 1°C
Humidity: 36%
Barometer: 29.99 inHg , 1015.6 hPa
Clouds: Overcast
Visibility: 10 miles , 16 km
Cloud details: Partly cloudy 8000 ft
Overcast 10000 ft
2024/04/16 04:53 KHVN 160453Z AUTO 34009KT 10SM SCT080 OVC100 16/01 A2999 RMK AO2 SLP156 T01560006 402560089
 
KMMK - Meriden, Connecticut, USA
Distance from station: NE 13mi, 21km
Updated: 04/16/2024 12:53am
Mostly cloudy
Mostly cloudy
 Wind from NNW
Wind: NNW 8 mph , 13 km/h, Gust: 18 mph , 30 km/h
Temperature: 57°F , 14°C
Dew Point: 27°F , -3°C
Humidity: 31%
Barometer: 30.01 inHg , 1016.3 hPa
Clouds: Mostly cloudy
Visibility: 10 miles , 16 km
Cloud details: Mostly cloudy 10000 ft
2024/04/16 04:53 KMMK 160453Z AUTO 34007G16KT 10SM BKN100 14/M03 A3001 RMK AO2 SLP159 T01391028 402440061
KBDR - Bridgeport, Connecticut, USA
Distance from station: SSW 17mi, 27km
Updated: 04/16/2024 12:52am
Mostly cloudy
Mostly cloudy
 Wind from N
Wind: N 8 mph , 13 km/h
Temperature: 57°F , 14°C
Dew Point: 34°F , 1°C
Humidity: 41%
Barometer: 30.00 inHg , 1015.9 hPa
Clouds: Mostly cloudy
Visibility: 10 miles , 16 km
Cloud details: Mostly cloudy 11000 ft
2024/04/16 04:52 KBDR 160452Z AUTO 35007KT 10SM BKN110 14/01 A3000 RMK AO2 SLP159 T01440006 402610089
 
KDXR - Danbury, Connecticut, USA
Distance from station: W 23mi, 38km
Updated: 04/16/2024 12:53am
Few Clouds
Few Clouds
 Wind from calm
Wind: Calm
Temperature: 55°F , 13°C
Dew Point: 30°F , -1°C
Humidity: 38%
Barometer: 30.02 inHg , 1016.6 hPa
Clouds: Few Clouds
Visibility: 10 miles , 16 km
Cloud details: Few Clouds 10000 ft
2024/04/16 04:53 KDXR 160453Z AUTO 00000KT 10SM FEW100 13/M01 A3002 RMK AO2 SLP163 T01281006 402500078 $